sensor_id;sensor_type;location;lat;lon;timestamp;pressure;altitude;pressure_sealevel;temperature;humidity
59110;BME280;44895;47.438;18.978;2023-04-09T00:02:51;100727.28;;;3.79;100.00
59110;BME280;44895;47.438;18.978;2023-04-09T00:05:55;100739.00;;;3.97;100.00
59110;BME280;44895;47.438;18.978;2023-04-09T00:08:59;100724.25;;;3.75;100.00
59110;BME280;44895;47.438;18.978;2023-04-09T00:12:02;100727.75;;;3.76;100.00
59110;BME280;44895;47.438;18.978;2023-04-09T00:15:07;100728.44;;;3.71;100.00
59110;BME280;44895;47.438;18.978;2023-04-09T00:18:11;100727.03;;;3.92;100.00
59110;BME280;44895;47.438;18.978;2023-04-09T00:21:14;100724.38;;;3.81;100.00
59110;BME280;44895;47.438;18.978;2023-04-09T00:24:18;100731.50;;;3.87;100.00
59110;BME280;44895;47.438;18.978;2023-04-09T00:27:23;100725.31;;;3.86;100.00
59110;BME280;44895;47.438;18.978;2023-04-09T00:30:28;100733.72;;;3.78;100.00
59110;BME280;44895;47.438;18.978;2023-04-09T00:33:32;100727.53;;;3.89;100.00
59110;BME280;44895;47.438;18.978;2023-04-09T00:36:35;100722.72;;;4.03;100.00
59110;BME280;44895;47.438;18.978;2023-04-09T00:39:39;100724.94;;;4.06;100.00
59110;BME280;44895;47.438;18.978;2023-04-09T00:42:43;100721.78;;;3.98;100.00
59110;BME280;44895;47.438;18.978;2023-04-09T00:45:48;100723.56;;;3.92;100.00
59110;BME280;44895;47.438;18.978;2023-04-09T00:48:52;100722.03;;;3.96;100.00
59110;BME280;44895;47.438;18.978;2023-04-09T00:51:56;100720.63;;;3.94;100.00
59110;BME280;44895;47.438;18.978;2023-04-09T00:55:03;100717.00;;;4.00;100.00
59110;BME280;44895;47.438;18.978;2023-04-09T00:58:08;100718.16;;;4.04;100.00
59110;BME280;44895;47.438;18.978;2023-04-09T01:01:12;100720.16;;;3.97;100.00
59110;BME280;44895;47.438;18.978;2023-04-09T01:04:16;100721.66;;;3.92;100.00
59110;BME280;44895;47.438;18.978;2023-04-09T01:17:29;100719.94;;;3.86;100.00
59110;BME280;44895;47.438;18.978;2023-04-09T01:20:46;100717.38;;;3.91;100.00
59110;BME280;44895;47.438;18.978;2023-04-09T01:24:18;100715.59;;;3.97;100.00
59110;BME280;44895;47.438;18.978;2023-04-09T01:27:31;100716.41;;;3.86;100.00
59110;BME280;44895;47.438;18.978;2023-04-09T01:30:39;100718.06;;;3.87;100.00
59110;BME280;44895;47.438;18.978;2023-04-09T01:33:45;100721.78;;;3.98;100.00
59110;BME280;44895;47.438;18.978;2023-04-09T01:36:56;100722.28;;;3.83;100.00
59110;BME280;44895;47.438;18.978;2023-04-09T01:40:01;100722.47;;;3.69;100.00
59110;BME280;44895;47.438;18.978;2023-04-09T01:43:07;100724.97;;;3.83;100.00
59110;BME280;44895;47.438;18.978;2023-04-09T01:46:12;100719.59;;;3.83;100.00
59110;BME280;44895;47.438;18.978;2023-04-09T01:49:17;100724.47;;;3.74;100.00
59110;BME280;44895;47.438;18.978;2023-04-09T01:52:21;100719.00;;;3.69;100.00
59110;BME280;44895;47.438;18.978;2023-04-09T01:55:25;100721.69;;;3.69;100.00
59110;BME280;44895;47.438;18.978;2023-04-09T01:58:29;100716.19;;;3.64;100.00
59110;BME280;44895;47.438;18.978;2023-04-09T02:01:38;100720.59;;;3.58;100.00
59110;BME280;44895;47.438;18.978;2023-04-09T02:04:46;100724.56;;;3.55;100.00
59110;BME280;44895;47.438;18.978;2023-04-09T02:07:55;100722.91;;;3.54;100.00
59110;BME280;44895;47.438;18.978;2023-04-09T02:11:03;100723.88;;;3.60;100.00
59110;BME280;44895;47.438;18.978;2023-04-09T02:14:08;100714.28;;;3.52;100.00
59110;BME280;44895;47.438;18.978;2023-04-09T02:17:13;100713.56;;;3.45;100.00
59110;BME280;44895;47.438;18.978;2023-04-09T02:20:17;100720.53;;;3.34;100.00
59110;BME280;44895;47.438;18.978;2023-04-09T02:23:22;100717.97;;;3.39;100.00
59110;BME280;44895;47.438;18.978;2023-04-09T02:26:26;100717.06;;;3.46;100.00
59110;BME280;44895;47.438;18.978;2023-04-09T02:29:30;100706.25;;;3.52;100.00
59110;BME280;44895;47.438;18.978;2023-04-09T02:32:34;100715.78;;;3.36;100.00
59110;BME280;44895;47.438;18.978;2023-04-09T02:35:38;100713.56;;;3.33;100.00
59110;BME280;44895;47.438;18.978;2023-04-09T02:38:42;100714.16;;;3.47;100.00
59110;BME280;44895;47.438;18.978;2023-04-09T02:41:45;100714.34;;;3.22;100.00
59110;BME280;44895;47.438;18.978;2023-04-09T02:44:49;100722.44;;;3.03;100.00
59110;BME280;44895;47.438;18.978;2023-04-09T02:47:53;100712.75;;;3.02;100.00
59110;BME280;44895;47.438;18.978;2023-04-09T02:50:57;100713.47;;;3.09;100.00
59110;BME280;44895;47.438;18.978;2023-04-09T02:54:01;100711.06;;;2.89;100.00
59110;BME280;44895;47.438;18.978;2023-04-09T02:57:05;100711.47;;;3.05;100.00
59110;BME280;44895;47.438;18.978;2023-04-09T03:00:09;100710.31;;;2.82;100.00
59110;BME280;44895;47.438;18.978;2023-04-09T03:03:13;100710.06;;;2.72;100.00
59110;BME280;44895;47.438;18.978;2023-04-09T03:06:17;100710.59;;;2.92;100.00
59110;BME280;44895;47.438;18.978;2023-04-09T03:09:21;100711.47;;;2.74;100.00
59110;BME280;44895;47.438;18.978;2023-04-09T03:12:25;100708.00;;;2.55;100.00
59110;BME280;44895;47.438;18.978;2023-04-09T03:15:29;100713.19;;;2.32;100.00
59110;BME280;44895;47.438;18.978;2023-04-09T03:18:33;100717.91;;;2.36;100.00
59110;BME280;44895;47.438;18.978;2023-04-09T03:21:37;100716.75;;;2.25;100.00
59110;BME280;44895;47.438;18.978;2023-04-09T03:24:42;100718.84;;;2.42;100.00
59110;BME280;44895;47.438;18.978;2023-04-09T03:27:46;100717.75;;;2.31;100.00
59110;BME280;44895;47.438;18.978;2023-04-09T03:30:56;100712.16;;;2.14;100.00
59110;BME280;44895;47.438;18.978;2023-04-09T03:34:03;100727.66;;;2.12;100.00
59110;BME280;44895;47.438;18.978;2023-04-09T03:37:09;100720.56;;;2.18;100.00
59110;BME280;44895;47.438;18.978;2023-04-09T03:40:13;100722.47;;;1.92;100.00
59110;BME280;44895;47.438;18.978;2023-04-09T03:43:17;100721.13;;;2.01;100.00
59110;BME280;44895;47.438;18.978;2023-04-09T03:46:26;100723.88;;;1.94;100.00
59110;BME280;44895;47.438;18.978;2023-04-09T03:49:30;100716.53;;;2.08;100.00
59110;BME280;44895;47.438;18.978;2023-04-09T03:52:42;100730.63;;;2.22;100.00
59110;BME280;44895;47.438;18.978;2023-04-09T03:55:46;100730.44;;;1.99;100.00
59110;BME280;44895;47.438;18.978;2023-04-09T03:58:57;100738.22;;;2.07;100.00
59110;BME280;44895;47.438;18.978;2023-04-09T04:02:11;100737.63;;;2.23;100.00
59110;BME280;44895;47.438;18.978;2023-04-09T04:05:24;100735.03;;;2.17;100.00
59110;BME280;44895;47.438;18.978;2023-04-09T04:08:29;100735.69;;;2.12;100.00
59110;BME280;44895;47.438;18.978;2023-04-09T04:11:35;100735.59;;;2.19;100.00
59110;BME280;44895;47.438;18.978;2023-04-09T04:14:39;100736.75;;;2.30;100.00
59110;BME280;44895;47.438;18.978;2023-04-09T04:17:54;100728.50;;;2.50;100.00
59110;BME280;44895;47.438;18.978;2023-04-09T04:21:12;100728.69;;;2.48;100.00
59110;BME280;44895;47.438;18.978;2023-04-09T04:24:20;100737.63;;;2.60;100.00
59110;BME280;44895;47.438;18.978;2023-04-09T04:27:24;100731.75;;;2.52;100.00
59110;BME280;44895;47.438;18.978;2023-04-09T04:30:29;100744.19;;;2.65;100.00
59110;BME280;44895;47.438;18.978;2023-04-09T04:33:40;100744.03;;;2.78;100.00
59110;BME280;44895;47.438;18.978;2023-04-09T04:36:48;100745.34;;;2.87;100.00
59110;BME280;44895;47.438;18.978;2023-04-09T04:39:54;100744.41;;;2.82;100.00
59110;BME280;44895;47.438;18.978;2023-04-09T04:42:58;100747.22;;;2.87;100.00
59110;BME280;44895;47.438;18.978;2023-04-09T04:46:02;100750.09;;;3.04;100.00
59110;BME280;44895;47.438;18.978;2023-04-09T04:49:08;100749.69;;;3.19;100.00
59110;BME280;44895;47.438;18.978;2023-04-09T04:52:19;100747.88;;;3.31;100.00
59110;BME280;44895;47.438;18.978;2023-04-09T04:55:27;100741.25;;;3.15;100.00
59110;BME280;44895;47.438;18.978;2023-04-09T04:58:31;100751.97;;;3.34;100.00
59110;BME280;44895;47.438;18.978;2023-04-09T05:01:38;100750.56;;;3.43;100.00
59110;BME280;44895;47.438;18.978;2023-04-09T05:04:45;100749.22;;;3.52;100.00
59110;BME280;44895;47.438;18.978;2023-04-09T05:07:53;100752.47;;;3.54;100.00
59110;BME280;44895;47.438;18.978;2023-04-09T05:10:58;100766.13;;;3.53;100.00
59110;BME280;44895;47.438;18.978;2023-04-09T05:14:09;100756.81;;;3.67;100.00
59110;BME280;44895;47.438;18.978;2023-04-09T05:17:13;100755.75;;;3.56;100.00
59110;BME280;44895;47.438;18.978;2023-04-09T05:20:20;100745.25;;;3.67;100.00
59110;BME280;44895;47.438;18.978;2023-04-09T05:23:38;100753.31;;;3.79;100.00
59110;BME280;44895;47.438;18.978;2023-04-09T05:26:42;100758.50;;;3.80;100.00
59110;BME280;44895;47.438;18.978;2023-04-09T05:29:46;100766.19;;;3.88;100.00
59110;BME280;44895;47.438;18.978;2023-04-09T05:32:50;100766.06;;;3.83;100.00
59110;BME280;44895;47.438;18.978;2023-04-09T05:35:54;100756.72;;;3.74;100.00
59110;BME280;44895;47.438;18.978;2023-04-09T05:38:57;100762.34;;;3.96;100.00
59110;BME280;44895;47.438;18.978;2023-04-09T05:42:01;100761.88;;;3.99;100.00
59110;BME280;44895;47.438;18.978;2023-04-09T05:45:25;100770.53;;;4.13;100.00
59110;BME280;44895;47.438;18.978;2023-04-09T05:48:34;100766.22;;;4.12;100.00
59110;BME280;44895;47.438;18.978;2023-04-09T05:51:38;100770.88;;;4.29;100.00
59110;BME280;44895;47.438;18.978;2023-04-09T05:54:42;100773.09;;;4.32;100.00
59110;BME280;44895;47.438;18.978;2023-04-09T05:57:51;100775.09;;;4.36;100.00
59110;BME280;44895;47.438;18.978;2023-04-09T06:00:55;100770.50;;;4.37;100.00
59110;BME280;44895;47.438;18.978;2023-04-09T06:03:59;100783.41;;;4.35;100.00
59110;BME280;44895;47.438;18.978;2023-04-09T06:07:06;100781.94;;;4.56;100.00
59110;BME280;44895;47.438;18.978;2023-04-09T06:10:10;100775.97;;;4.66;100.00
59110;BME280;44895;47.438;18.978;2023-04-09T06:13:13;100783.25;;;4.65;100.00
59110;BME280;44895;47.438;18.978;2023-04-09T06:16:18;100783.81;;;4.79;100.00
59110;BME280;44895;47.438;18.978;2023-04-09T06:19:22;100786.34;;;4.86;100.00
59110;BME280;44895;47.438;18.978;2023-04-09T06:22:26;100786.56;;;4.96;100.00
59110;BME280;44895;47.438;18.978;2023-04-09T06:25:30;100792.28;;;5.00;100.00
59110;BME280;44895;47.438;18.978;2023-04-09T06:28:34;100778.09;;;5.04;100.00
59110;BME280;44895;47.438;18.978;2023-04-09T06:31:39;100781.34;;;5.18;100.00
59110;BME280;44895;47.438;18.978;2023-04-09T06:34:42;100787.38;;;5.26;100.00
59110;BME280;44895;47.438;18.978;2023-04-09T06:37:46;100784.16;;;5.41;100.00
59110;BME280;44895;47.438;18.978;2023-04-09T06:40:49;100787.38;;;5.54;100.00
59110;BME280;44895;47.438;18.978;2023-04-09T06:43:54;100781.41;;;5.52;100.00
59110;BME280;44895;47.438;18.978;2023-04-09T06:46:58;100780.13;;;5.55;100.00
59110;BME280;44895;47.438;18.978;2023-04-09T06:50:02;100778.34;;;5.78;100.00
59110;BME280;44895;47.438;18.978;2023-04-09T06:53:06;100783.66;;;5.72;100.00
59110;BME280;44895;47.438;18.978;2023-04-09T06:56:09;100791.41;;;5.69;100.00
59110;BME280;44895;47.438;18.978;2023-04-09T06:59:14;100792.47;;;5.68;100.00
59110;BME280;44895;47.438;18.978;2023-04-09T07:02:19;100794.50;;;5.95;100.00
59110;BME280;44895;47.438;18.978;2023-04-09T07:05:22;100805.22;;;6.07;100.00
59110;BME280;44895;47.438;18.978;2023-04-09T07:08:26;100802.47;;;6.18;100.00
59110;BME280;44895;47.438;18.978;2023-04-09T07:11:31;100795.78;;;6.43;100.00
59110;BME280;44895;47.438;18.978;2023-04-09T07:14:35;100802.97;;;6.55;100.00
59110;BME280;44895;47.438;18.978;2023-04-09T07:17:38;100800.06;;;6.39;100.00
59110;BME280;44895;47.438;18.978;2023-04-09T07:20:42;100806.84;;;6.42;100.00
59110;BME280;44895;47.438;18.978;2023-04-09T07:23:46;100808.22;;;6.44;100.00
59110;BME280;44895;47.438;18.978;2023-04-09T07:26:50;100815.66;;;6.54;100.00
59110;BME280;44895;47.438;18.978;2023-04-09T07:29:57;100812.34;;;6.69;100.00
59110;BME280;44895;47.438;18.978;2023-04-09T07:33:01;100815.06;;;6.69;100.00
59110;BME280;44895;47.438;18.978;2023-04-09T07:36:05;100819.06;;;6.66;100.00
59110;BME280;44895;47.438;18.978;2023-04-09T07:39:09;100807.78;;;6.92;100.00
59110;BME280;44895;47.438;18.978;2023-04-09T07:42:13;100814.81;;;7.15;100.00
59110;BME280;44895;47.438;18.978;2023-04-09T07:45:16;100814.78;;;6.93;100.00
59110;BME280;44895;47.438;18.978;2023-04-09T07:48:19;100823.22;;;7.18;100.00
59110;BME280;44895;47.438;18.978;2023-04-09T07:51:24;100819.66;;;7.40;100.00
59110;BME280;44895;47.438;18.978;2023-04-09T07:54:28;100822.31;;;7.35;100.00
59110;BME280;44895;47.438;18.978;2023-04-09T07:57:32;100824.09;;;7.79;100.00
59110;BME280;44895;47.438;18.978;2023-04-09T08:00:36;100816.41;;;7.98;100.00
59110;BME280;44895;47.438;18.978;2023-04-09T08:03:40;100813.31;;;8.54;100.00
59110;BME280;44895;47.438;18.978;2023-04-09T08:06:44;100811.19;;;8.61;100.00
59110;BME280;44895;47.438;18.978;2023-04-09T08:09:54;100813.72;;;8.84;100.00
59110;BME280;44895;47.438;18.978;2023-04-09T08:12:57;100812.00;;;9.36;100.00
59110;BME280;44895;47.438;18.978;2023-04-09T08:16:01;100812.00;;;9.36;100.00
59110;BME280;44895;47.438;18.978;2023-04-09T08:19:09;100807.63;;;9.24;100.00
59110;BME280;44895;47.438;18.978;2023-04-09T08:22:13;100812.03;;;9.51;100.00
59110;BME280;44895;47.438;18.978;2023-04-09T08:25:17;100827.00;;;9.79;100.00
59110;BME280;44895;47.438;18.978;2023-04-09T08:28:21;100821.03;;;10.29;100.00
59110;BME280;44895;47.438;18.978;2023-04-09T08:31:26;100822.41;;;10.06;100.00
59110;BME280;44895;47.438;18.978;2023-04-09T08:34:29;100813.69;;;10.19;100.00
59110;BME280;44895;47.438;18.978;2023-04-09T08:37:33;100831.28;;;9.44;100.00
59110;BME280;44895;47.438;18.978;2023-04-09T08:40:37;100840.00;;;9.57;100.00
59110;BME280;44895;47.438;18.978;2023-04-09T08:43:41;100836.94;;;9.27;100.00
59110;BME280;44895;47.438;18.978;2023-04-09T08:46:46;100849.50;;;9.95;100.00
59110;BME280;44895;47.438;18.978;2023-04-09T08:49:49;100837.28;;;10.34;100.00
59110;BME280;44895;47.438;18.978;2023-04-09T08:52:53;100844.91;;;10.37;100.00
59110;BME280;44895;47.438;18.978;2023-04-09T08:55:58;100851.69;;;10.60;100.00
59110;BME280;44895;47.438;18.978;2023-04-09T08:59:02;100850.44;;;11.08;100.00
59110;BME280;44895;47.438;18.978;2023-04-09T09:02:09;100849.72;;;11.47;100.00
59110;BME280;44895;47.438;18.978;2023-04-09T09:05:13;100848.16;;;9.98;100.00
59110;BME280;44895;47.438;18.978;2023-04-09T09:08:24;100854.41;;;10.29;100.00
59110;BME280;44895;47.438;18.978;2023-04-09T09:11:29;100852.53;;;10.15;100.00
59110;BME280;44895;47.438;18.978;2023-04-09T09:14:33;100853.63;;;10.39;100.00
59110;BME280;44895;47.438;18.978;2023-04-09T09:17:53;100856.56;;;10.58;100.00
59110;BME280;44895;47.438;18.978;2023-04-09T09:24:17;100851.63;;;10.76;100.00
59110;BME280;44895;47.438;18.978;2023-04-09T09:27:35;100856.28;;;10.65;100.00
59110;BME280;44895;47.438;18.978;2023-04-09T09:30:39;100850.59;;;10.46;100.00
59110;BME280;44895;47.438;18.978;2023-04-09T09:33:43;100848.41;;;10.69;100.00
59110;BME280;44895;47.438;18.978;2023-04-09T09:36:47;100843.69;;;11.00;100.00
59110;BME280;44895;47.438;18.978;2023-04-09T09:39:51;100845.56;;;11.10;100.00
59110;BME280;44895;47.438;18.978;2023-04-09T09:42:56;100845.13;;;10.77;100.00
59110;BME280;44895;47.438;18.978;2023-04-09T09:46:00;100847.81;;;10.87;100.00
59110;BME280;44895;47.438;18.978;2023-04-09T09:49:05;100841.00;;;10.90;100.00
59110;BME280;44895;47.438;18.978;2023-04-09T09:52:09;100840.19;;;11.45;100.00
59110;BME280;44895;47.438;18.978;2023-04-09T09:55:14;100834.50;;;11.41;100.00
59110;BME280;44895;47.438;18.978;2023-04-09T09:58:22;100834.53;;;11.36;100.00
59110;BME280;44895;47.438;18.978;2023-04-09T10:01:27;100835.53;;;11.55;100.00
59110;BME280;44895;47.438;18.978;2023-04-09T10:04:33;100839.50;;;11.18;100.00
59110;BME280;44895;47.438;18.978;2023-04-09T10:07:40;100834.44;;;11.01;100.00
59110;BME280;44895;47.438;18.978;2023-04-09T10:10:44;100838.16;;;11.16;100.00
59110;BME280;44895;47.438;18.978;2023-04-09T10:13:57;100833.78;;;11.25;100.00
59110;BME280;44895;47.438;18.978;2023-04-09T10:17:03;100831.81;;;10.75;100.00
59110;BME280;44895;47.438;18.978;2023-04-09T10:20:18;100834.53;;;10.81;100.00
59110;BME280;44895;47.438;18.978;2023-04-09T10:23:44;100836.56;;;11.15;100.00
59110;BME280;44895;47.438;18.978;2023-04-09T10:26:53;100839.06;;;11.06;100.00
59110;BME280;44895;47.438;18.978;2023-04-09T10:29:58;100831.66;;;11.12;100.00
59110;BME280;44895;47.438;18.978;2023-04-09T10:33:13;100839.47;;;10.53;100.00
59110;BME280;44895;47.438;18.978;2023-04-09T10:36:18;100837.03;;;10.20;100.00
59110;BME280;44895;47.438;18.978;2023-04-09T10:39:32;100839.75;;;10.36;100.00
59110;BME280;44895;47.438;18.978;2023-04-09T10:42:38;100829.44;;;10.48;100.00
59110;BME280;44895;47.438;18.978;2023-04-09T10:45:45;100839.38;;;10.89;100.00
59110;BME280;44895;47.438;18.978;2023-04-09T10:52:11;100829.19;;;10.39;100.00
59110;BME280;44895;47.438;18.978;2023-04-09T10:55:36;100827.97;;;10.82;100.00
59110;BME280;44895;47.438;18.978;2023-04-09T10:58:40;100824.13;;;10.93;100.00
59110;BME280;44895;47.438;18.978;2023-04-09T11:01:51;100826.38;;;10.81;100.00
59110;BME280;44895;47.438;18.978;2023-04-09T11:08:32;100826.09;;;11.42;100.00
59110;BME280;44895;47.438;18.978;2023-04-09T11:11:36;100829.97;;;11.31;100.00
59110;BME280;44895;47.438;18.978;2023-04-09T11:14:40;100824.47;;;11.41;100.00
59110;BME280;44895;47.438;18.978;2023-04-09T11:17:47;100817.66;;;11.44;100.00
59110;BME280;44895;47.438;18.978;2023-04-09T11:20:54;100821.19;;;11.39;100.00
59110;BME280;44895;47.438;18.978;2023-04-09T11:23:58;100823.53;;;11.06;100.00
59110;BME280;44895;47.438;18.978;2023-04-09T11:27:02;100813.94;;;11.24;100.00
59110;BME280;44895;47.438;18.978;2023-04-09T11:30:06;100819.13;;;11.21;100.00
59110;BME280;44895;47.438;18.978;2023-04-09T11:33:10;100819.47;;;11.04;100.00
59110;BME280;44895;47.438;18.978;2023-04-09T11:36:14;100823.59;;;10.96;100.00
59110;BME280;44895;47.438;18.978;2023-04-09T11:39:18;100822.53;;;10.92;100.00
59110;BME280;44895;47.438;18.978;2023-04-09T11:42:22;100819.03;;;10.76;100.00
59110;BME280;44895;47.438;18.978;2023-04-09T11:45:29;100819.00;;;10.86;100.00
59110;BME280;44895;47.438;18.978;2023-04-09T11:48:33;100808.97;;;10.87;100.00
59110;BME280;44895;47.438;18.978;2023-04-09T11:51:38;100818.44;;;10.95;100.00
59110;BME280;44895;47.438;18.978;2023-04-09T11:54:41;100816.53;;;10.95;100.00
59110;BME280;44895;47.438;18.978;2023-04-09T11:57:51;100823.94;;;10.74;100.00
59110;BME280;44895;47.438;18.978;2023-04-09T12:00:59;100814.66;;;10.80;100.00
59110;BME280;44895;47.438;18.978;2023-04-09T12:04:02;100817.41;;;10.75;100.00
59110;BME280;44895;47.438;18.978;2023-04-09T12:07:07;100816.59;;;10.74;100.00
59110;BME280;44895;47.438;18.978;2023-04-09T12:10:12;100810.63;;;10.67;100.00
59110;BME280;44895;47.438;18.978;2023-04-09T12:13:16;100813.91;;;10.69;100.00
59110;BME280;44895;47.438;18.978;2023-04-09T12:16:20;100822.53;;;10.87;100.00
59110;BME280;44895;47.438;18.978;2023-04-09T12:19:24;100824.13;;;10.93;100.00
59110;BME280;44895;47.438;18.978;2023-04-09T12:22:28;100813.63;;;10.66;100.00
59110;BME280;44895;47.438;18.978;2023-04-09T12:25:36;100820.50;;;10.42;100.00
59110;BME280;44895;47.438;18.978;2023-04-09T12:28:41;100817.19;;;10.51;100.00
59110;BME280;44895;47.438;18.978;2023-04-09T12:31:45;100807.66;;;10.64;100.00
59110;BME280;44895;47.438;18.978;2023-04-09T12:34:48;100813.34;;;10.72;100.00
59110;BME280;44895;47.438;18.978;2023-04-09T12:37:52;100813.91;;;10.69;100.00
59110;BME280;44895;47.438;18.978;2023-04-09T12:40:56;100816.59;;;10.74;100.00
59110;BME280;44895;47.438;18.978;2023-04-09T12:43:59;100805.75;;;10.69;100.00
59110;BME280;44895;47.438;18.978;2023-04-09T12:47:03;100816.50;;;11.00;100.00
59110;BME280;44895;47.438;18.978;2023-04-09T12:50:08;100806.81;;;10.73;100.00
59110;BME280;44895;47.438;18.978;2023-04-09T12:53:12;100802.38;;;11.03;100.00
59110;BME280;44895;47.438;18.978;2023-04-09T12:56:15;100803.03;;;10.69;100.00
59110;BME280;44895;47.438;18.978;2023-04-09T12:59:19;100795.44;;;10.61;100.00
59110;BME280;44895;47.438;18.978;2023-04-09T13:02:23;100800.38;;;10.28;100.00
59110;BME280;44895;47.438;18.978;2023-04-09T13:05:27;100793.88;;;10.29;100.00
59110;BME280;44895;47.438;18.978;2023-04-09T13:08:31;100795.22;;;10.42;100.00
59110;BME280;44895;47.438;18.978;2023-04-09T13:11:34;100792.22;;;10.49;100.00
59110;BME280;44895;47.438;18.978;2023-04-09T13:14:40;100787.00;;;10.63;100.00
59110;BME280;44895;47.438;18.978;2023-04-09T13:17:44;100784.28;;;10.68;100.00
59110;BME280;44895;47.438;18.978;2023-04-09T13:20:48;100781.00;;;10.76;100.00
59110;BME280;44895;47.438;18.978;2023-04-09T13:23:52;100781.78;;;10.87;100.00
59110;BME280;44895;47.438;18.978;2023-04-09T13:26:56;100781.97;;;11.06;100.00
59110;BME280;44895;47.438;18.978;2023-04-09T13:29:59;100775.19;;;11.03;100.00
59110;BME280;44895;47.438;18.978;2023-04-09T13:33:03;100777.38;;;10.96;100.00
59110;BME280;44895;47.438;18.978;2023-04-09T13:36:07;100777.31;;;10.41;100.00
59110;BME280;44895;47.438;18.978;2023-04-09T13:39:11;100771.22;;;10.75;100.00
59110;BME280;44895;47.438;18.978;2023-04-09T13:42:14;100771.53;;;10.63;100.00
59110;BME280;44895;47.438;18.978;2023-04-09T13:45:19;100763.88;;;10.81;100.00
59110;BME280;44895;47.438;18.978;2023-04-09T13:48:26;100764.13;;;10.79;100.00
59110;BME280;44895;47.438;18.978;2023-04-09T13:51:29;100776.03;;;10.93;100.00
59110;BME280;44895;47.438;18.978;2023-04-09T13:54:34;100767.91;;;10.88;100.00
59110;BME280;44895;47.438;18.978;2023-04-09T13:57:37;100768.41;;;10.96;100.00
59110;BME280;44895;47.438;18.978;2023-04-09T14:00:41;100768.72;;;10.89;100.00
59110;BME280;44895;47.438;18.978;2023-04-09T14:03:45;100763.31;;;10.84;100.00
59110;BME280;44895;47.438;18.978;2023-04-09T14:06:49;100759.53;;;10.80;100.00
59110;BME280;44895;47.438;18.978;2023-04-09T14:09:53;100753.53;;;10.77;100.00
59110;BME280;44895;47.438;18.978;2023-04-09T14:12:57;100751.88;;;10.82;100.00
59110;BME280;44895;47.438;18.978;2023-04-09T14:16:01;100751.41;;;10.74;100.00
59110;BME280;44895;47.438;18.978;2023-04-09T14:19:04;100746.47;;;10.82;100.00
59110;BME280;44895;47.438;18.978;2023-04-09T14:22:08;100756.50;;;10.86;100.00
59110;BME280;44895;47.438;18.978;2023-04-09T14:25:13;100745.63;;;10.86;100.00
59110;BME280;44895;47.438;18.978;2023-04-09T14:28:17;100747.53;;;10.86;100.00
59110;BME280;44895;47.438;18.978;2023-04-09T14:31:21;100725.00;;;10.80;100.00
59110;BME280;44895;47.438;18.978;2023-04-09T14:34:25;100744.34;;;10.73;100.00
59110;BME280;44895;47.438;18.978;2023-04-09T14:37:29;100742.69;;;10.77;100.00
59110;BME280;44895;47.438;18.978;2023-04-09T14:40:32;100748.13;;;10.77;100.00
59110;BME280;44895;47.438;18.978;2023-04-09T14:43:36;100734.22;;;10.84;100.00
59110;BME280;44895;47.438;18.978;2023-04-09T14:46:40;100741.59;;;10.79;100.00
59110;BME280;44895;47.438;18.978;2023-04-09T14:49:43;100739.44;;;10.75;100.00
59110;BME280;44895;47.438;18.978;2023-04-09T14:52:47;100735.34;;;10.83;100.00
59110;BME280;44895;47.438;18.978;2023-04-09T14:55:51;100733.66;;;10.92;100.00
59110;BME280;44895;47.438;18.978;2023-04-09T14:58:55;100736.94;;;10.89;100.00
59110;BME280;44895;47.438;18.978;2023-04-09T15:01:58;100727.94;;;10.89;100.00
59110;BME280;44895;47.438;18.978;2023-04-09T15:05:03;100729.59;;;10.90;97.40
59110;BME280;44895;47.438;18.978;2023-04-09T15:08:06;100724.69;;;10.92;98.83
59110;BME280;44895;47.438;18.978;2023-04-09T15:11:14;100722.59;;;10.73;94.98
59110;BME280;44895;47.438;18.978;2023-04-09T15:14:19;100728.84;;;10.69;94.74
59110;BME280;44895;47.438;18.978;2023-04-09T15:17:24;100725.88;;;10.65;97.42
59110;BME280;44895;47.438;18.978;2023-04-09T15:20:28;100721.88;;;10.52;97.64
59110;BME280;44895;47.438;18.978;2023-04-09T15:23:32;100714.25;;;10.59;95.93
59110;BME280;44895;47.438;18.978;2023-04-09T15:26:37;100721.78;;;10.68;98.68
59110;BME280;44895;47.438;18.978;2023-04-09T15:29:41;100728.59;;;10.65;100.00
59110;BME280;44895;47.438;18.978;2023-04-09T15:32:45;100721.28;;;10.66;93.71
59110;BME280;44895;47.438;18.978;2023-04-09T15:35:49;100726.75;;;10.60;96.02
59110;BME280;44895;47.438;18.978;2023-04-09T15:38:53;100724.81;;;10.61;99.59
59110;BME280;44895;47.438;18.978;2023-04-09T15:41:57;100720.19;;;10.67;100.00
59110;BME280;44895;47.438;18.978;2023-04-09T15:45:01;100719.66;;;10.65;94.50
59110;BME280;44895;47.438;18.978;2023-04-09T15:48:05;100727.88;;;10.49;95.76
59110;BME280;44895;47.438;18.978;2023-04-09T15:51:09;100731.38;;;10.55;93.42
59110;BME280;44895;47.438;18.978;2023-04-09T15:54:13;100724.31;;;10.59;96.16
59110;BME280;44895;47.438;18.978;2023-04-09T15:57:17;100730.63;;;10.39;97.30
59110;BME280;44895;47.438;18.978;2023-04-09T16:00:22;100722.19;;;10.35;96.77
59110;BME280;44895;47.438;18.978;2023-04-09T16:03:26;100724.91;;;10.35;96.51
59110;BME280;44895;47.438;18.978;2023-04-09T16:06:30;100722.16;;;10.46;96.73
59110;BME280;44895;47.438;18.978;2023-04-09T16:09:34;100723.78;;;10.52;99.09
59110;BME280;44895;47.438;18.978;2023-04-09T16:12:37;100721.59;;;10.59;98.60